Time;durP1;ratioP1;P1;durP2;ratioP2;P2;SDS_P1;SDS_P2;PMS_P1;PMS_P2;Temp;Humidity;BMP_temperature;BMP_pressure;BME280_temperature;BME280_humidity;BME280_pressure;Samples;Min_cycle;Max_cycle;Signal;HPM_P1;HPM_P2
2024/02/08 00:01:16;;;;;;;26.70;18.20;;;;;;;5.38;88.48;96877.22;5066366;28;20488;-74
2024/02/08 00:03:41;;;;;;;33.00;19.38;;;;;;;5.39;88.56;96884.16;5072661;28;20037;-72
2024/02/08 00:06:07;;;;;;;45.22;24.52;;;;;;;5.34;87.49;96870.75;5073494;28;20029;-72
2024/02/08 00:08:35;;;;;;;63.22;26.98;;;;;;;5.36;87.55;96873.97;5070151;28;20476;-73
2024/02/08 00:11:02;;;;;;;22.25;17.80;;;;;;;5.29;87.96;96876.00;5074725;28;20046;-72
2024/02/08 00:13:28;;;;;;;21.60;17.40;;;;;;;5.30;88.30;96874.94;5070267;28;20075;-73
2024/02/08 00:15:53;;;;;;;36.55;21.65;;;;;;;5.30;88.33;96853.59;5069883;28;20567;-73
2024/02/08 00:18:19;;;;;;;36.35;22.65;;;;;;;5.29;87.82;96868.00;5073037;28;20032;-73
2024/02/08 00:20:44;;;;;;;30.08;20.85;;;;;;;5.26;87.82;96878.34;5073411;28;20073;-73
2024/02/08 00:23:10;;;;;;;28.05;19.23;;;;;;;5.25;88.67;96866.84;5072645;28;20078;-73
2024/02/08 00:25:35;;;;;;;54.53;25.60;;;;;;;5.20;87.88;96868.66;5056136;28;20071;-74
2024/02/08 00:28:01;;;;;;;25.48;18.80;;;;;;;5.19;88.71;96870.50;5064497;28;20416;-73
2024/02/08 00:30:26;;;;;;;36.80;18.00;;;;;;;5.08;89.07;96871.38;5072046;28;20089;-72
2024/02/08 00:32:51;;;;;;;29.50;19.42;;;;;;;5.11;88.69;96870.88;5071147;28;20033;-73
2024/02/08 00:35:17;;;;;;;33.75;20.38;;;;;;;5.14;89.05;96869.59;5073713;28;20520;-73
2024/02/08 00:37:46;;;;;;;34.35;21.35;;;;;;;5.12;88.69;96864.50;5070742;28;20736;-73
2024/02/08 00:40:15;;;;;;;39.85;21.77;;;;;;;5.10;88.86;96858.63;5072791;28;20032;-72
2024/02/08 00:42:42;;;;;;;44.22;21.63;;;;;;;5.04;88.69;96854.22;5067273;28;20041;-75
2024/02/08 00:45:11;;;;;;;50.78;24.30;;;;;;;5.04;88.82;96859.56;5073618;28;20044;-75
2024/02/08 00:47:38;;;;;;;32.63;19.83;;;;;;;5.02;89.30;96866.22;5072313;28;20037;-73
2024/02/08 00:50:05;;;;;;;24.30;17.27;;;;;;;4.89;89.43;96843.31;5072496;28;20036;-73
2024/02/08 00:52:33;;;;;;;38.75;22.08;;;;;;;5.06;89.04;96864.69;5071525;28;20549;-73
2024/02/08 00:54:59;;;;;;;46.78;25.05;;;;;;;4.97;88.75;96858.91;5069499;28;20021;-72
2024/02/08 00:57:29;;;;;;;28.20;19.23;;;;;;;4.87;89.60;96848.91;5071224;28;20032;-72
2024/02/08 00:59:54;;;;;;;40.05;22.88;;;;;;;4.81;88.98;96855.19;5069728;28;20032;-72
2024/02/08 01:02:20;;;;;;;35.33;22.60;;;;;;;4.85;89.19;96863.53;5067946;28;20058;-73
2024/02/08 01:04:48;;;;;;;48.30;23.95;;;;;;;4.71;89.76;96860.34;5071941;28;20388;-72
2024/02/08 01:07:14;;;;;;;31.35;21.52;;;;;;;4.55;89.49;96839.78;5070071;28;20423;-73
2024/02/08 01:09:39;;;;;;;35.67;23.45;;;;;;;4.59;89.99;96848.13;5064111;28;20024;-75
2024/02/08 01:12:05;;;;;;;28.40;19.52;;;;;;;4.71;89.14;96859.56;5073459;28;20055;-71
2024/02/08 01:14:31;;;;;;;26.80;18.90;;;;;;;4.75;89.07;96856.16;5071679;28;20017;-71
2024/02/08 01:16:56;;;;;;;19.27;15.50;;;;;;;4.79;89.16;96856.47;5072993;28;20595;-70
2024/02/08 01:19:22;;;;;;;15.95;14.27;;;;;;;4.84;88.92;96853.91;5073404;28;20028;-70
2024/02/08 01:21:56;;;;;;;21.23;16.27;;;;;;;4.94;89.17;96843.41;5071883;28;20496;-70
2024/02/08 01:24:22;;;;;;;17.70;15.15;;;;;;;4.98;88.64;96846.38;5071207;28;20119;-70
2024/02/08 01:26:48;;;;;;;25.60;18.23;;;;;;;5.00;89.16;96837.09;5073179;28;20107;-72
2024/02/08 01:29:15;;;;;;;23.50;17.17;;;;;;;5.06;89.48;96846.81;5072847;28;20132;-71
2024/02/08 01:31:40;;;;;;;17.75;14.65;;;;;;;4.89;89.57;96832.66;5071670;28;20035;-72
2024/02/08 01:34:09;;;;;;;19.67;16.15;;;;;;;4.95;89.35;96826.34;5071301;28;20021;-72
2024/02/08 01:36:39;;;;;;;24.88;17.17;;;;;;;5.03;89.09;96846.47;5071441;28;20044;-72
2024/02/08 01:39:06;;;;;;;19.88;15.68;;;;;;;4.93;89.07;96840.97;5071697;28;20441;-72
2024/02/08 01:41:33;;;;;;;14.20;12.80;;;;;;;4.89;88.94;96824.66;5071395;28;20035;-72
2024/02/08 01:44:03;;;;;;;28.52;17.80;;;;;;;4.95;88.90;96842.34;5071076;28;20032;-72
2024/02/08 01:46:28;;;;;;;48.28;17.75;;;;;;;4.92;89.71;96834.84;5071371;28;20123;-71
2024/02/08 01:48:54;;;;;;;61.95;26.13;;;;;;;4.89;88.93;96841.47;5071255;28;20036;-73
2024/02/08 01:51:22;;;;;;;30.75;18.98;;;;;;;4.68;89.11;96826.19;5071238;28;20434;-72
2024/02/08 01:53:49;;;;;;;18.88;15.93;;;;;;;4.71;89.70;96816.88;5072183;28;20510;-72
2024/02/08 01:56:16;;;;;;;28.27;19.50;;;;;;;4.83;88.51;96846.97;5071140;28;20171;-72
2024/02/08 01:58:44;;;;;;;27.38;18.10;;;;;;;4.90;88.67;96844.94;5048591;28;20028;-72
2024/02/08 02:01:16;;;;;;;28.05;18.98;;;;;;;4.84;89.15;96845.91;5052120;28;20384;-72
2024/02/08 02:03:41;;;;;;;24.88;18.10;;;;;;;4.78;89.64;96841.53;5071784;28;20047;-71
2024/02/08 02:06:08;;;;;;;24.33;18.27;;;;;;;4.71;89.24;96830.22;5072469;28;20047;-71
2024/02/08 02:08:33;;;;;;;24.95;18.65;;;;;;;4.84;89.40;96840.56;5071989;28;20047;-71
2024/02/08 02:11:17;;;;;;;26.13;17.88;;;;;;;4.81;89.27;96849.03;5072214;28;20052;-72
2024/02/08 02:14:15;;;;;;;19.02;15.85;;;;;;;4.87;88.57;96832.09;5074712;28;20029;-72
2024/02/08 02:16:51;;;;;;;19.20;15.57;;;;;;;4.91;88.62;96822.53;5049243;28;20032;-73
2024/02/08 02:19:20;;;;;;;23.63;17.30;;;;;;;4.94;88.90;96835.41;5063058;28;20041;-74
2024/02/08 02:21:55;;;;;;;16.75;14.52;;;;;;;5.04;89.32;96835.56;5082007;28;20033;-73
2024/02/08 02:24:25;;;;;;;25.85;17.88;;;;;;;5.02;89.24;96837.66;5048145;28;20046;-73
2024/02/08 02:26:57;;;;;;;23.67;17.67;;;;;;;4.99;89.44;96824.81;5038806;28;20089;-72
2024/02/08 02:29:24;;;;;;;27.95;19.42;;;;;;;5.08;88.51;96823.38;5057489;28;20039;-72
2024/02/08 02:31:51;;;;;;;32.70;20.40;;;;;;;5.10;88.78;96831.13;5078591;28;20054;-73
2024/02/08 02:34:30;;;;;;;24.67;17.00;;;;;;;5.06;88.67;96820.13;5064147;28;20025;-75
2024/02/08 02:36:58;;;;;;;30.67;18.13;;;;;;;5.05;89.12;96823.84;5077371;28;20085;-72
2024/02/08 02:39:34;;;;;;;24.15;17.10;;;;;;;5.08;88.21;96818.03;5058998;28;20020;-74
2024/02/08 02:42:00;;;;;;;;;;;;;;;4.82;88.81;96808.00;5076490;28;20112;-74
2024/02/08 02:44:35;;;;;;;23.60;17.10;;;;;;;5.02;89.26;96797.63;5070311;28;20011;-73
2024/02/08 02:47:48;;;;;;;39.92;21.67;;;;;;;5.15;89.48;96807.19;5047986;28;20041;-73
2024/02/08 02:50:19;;;;;;;47.60;22.40;;;;;;;5.19;89.05;96803.78;5081120;28;20052;-73
2024/02/08 02:52:51;;;;;;;41.13;21.73;;;;;;;5.18;89.00;96791.47;5044622;28;20252;-72
2024/02/08 02:55:22;;;;;;;28.75;18.15;;;;;;;5.14;89.24;96803.69;5060136;28;20109;-73
2024/02/08 02:57:58;;;;;;;34.78;20.75;;;;;;;5.13;89.62;96804.78;5045183;28;20033;-72
2024/02/08 03:00:24;;;;;;;57.80;24.05;;;;;;;5.03;90.35;96814.47;5077749;28;20040;-72
2024/02/08 03:02:51;;;;;;;55.55;24.63;;;;;;;4.88;89.80;96791.00;5053740;28;20066;-72
2024/02/08 03:05:44;;;;;;;59.55;25.30;;;;;;;5.02;90.06;96813.66;5080760;28;20048;-73
2024/02/08 03:08:24;;;;;;;44.92;21.98;;;;;;;4.94;90.26;96811.41;5075814;28;20068;-73
2024/02/08 03:10:53;;;;;;;42.80;22.25;;;;;;;4.90;89.80;96815.63;5072078;28;20032;-72
2024/02/08 03:13:23;;;;;;;31.48;20.00;;;;;;;4.96;90.16;96798.63;5054587;28;20025;-70
2024/02/08 03:15:52;;;;;;;20.45;15.88;;;;;;;5.00;89.70;96799.75;5054814;28;20033;-70
2024/02/08 03:18:23;;;;;;;38.88;20.23;;;;;;;5.02;90.25;96802.97;5072166;28;20395;-71
2024/02/08 03:21:14;;;;;;;51.13;22.13;;;;;;;5.08;89.16;96802.03;5071599;28;20381;-70
2024/02/08 03:24:10;;;;;;;28.77;17.23;;;;;;;5.09;89.32;96798.28;5053548;28;20027;-71
2024/02/08 03:26:40;;;;;;;42.63;20.90;;;;;;;5.11;89.08;96790.84;5076741;28;20051;-71
2024/02/08 03:29:17;;;;;;;40.88;21.23;;;;;;;5.16;89.96;96788.25;5069155;28;20092;-71
2024/02/08 03:31:46;;;;;;;29.73;19.00;;;;;;;5.15;89.26;96792.00;5075279;28;20116;-71
2024/02/08 03:34:30;;;;;;;51.92;24.50;;;;;;;5.15;89.43;96797.31;5074932;28;20029;-72
2024/02/08 03:37:03;;;;;;;41.60;21.20;;;;;;;5.14;89.98;96798.38;5077632;28;20105;-72
2024/02/08 03:39:46;;;;;;;61.92;24.85;;;;;;;4.96;90.13;96758.63;5081897;28;20048;-71
2024/02/08 03:42:19;;;;;;;67.10;25.65;;;;;;;5.14;89.85;96790.38;5047011;28;20044;-71
2024/02/08 03:44:48;;;;;;;69.68;26.77;;;;;;;5.11;89.84;96785.50;5081873;28;20066;-71
2024/02/08 03:47:21;;;;;;;63.83;25.25;;;;;;;5.12;90.49;96791.66;5047875;28;20029;-72
2024/02/08 03:49:51;;;;;;;78.05;39.10;;;;;;;5.16;89.80;96787.47;5084329;28;20074;-71
2024/02/08 03:52:23;;;;;;;51.08;31.67;;;;;;;5.21;89.26;96785.66;5080036;28;20036;-70
2024/02/08 03:54:49;;;;;;;46.78;32.78;;;;;;;5.23;89.94;96788.88;5082698;28;20090;-70
2024/02/08 03:57:18;;;;;;;68.22;34.65;;;;;;;5.22;90.41;96789.97;5084056;28;20021;-69
2024/02/08 03:59:54;;;;;;;82.90;32.03;;;;;;;5.20;90.32;96792.06;5055744;28;20036;-69
2024/02/08 04:02:34;;;;;;;72.40;29.70;;;;;;;5.27;90.25;96783.88;5067126;28;20039;-70
2024/02/08 04:05:21;;;;;;;32.20;19.60;;;;;;;5.21;90.30;96784.84;5077919;28;20036;-69
2024/02/08 04:07:59;;;;;;;63.72;29.48;;;;;;;5.27;90.58;96784.69;5062465;28;20037;-71
2024/02/08 04:55:47;;;;;;;120.15;32.63;;;;;;;5.27;90.01;96786.56;5057262;28;20028;-72
2024/02/08 04:58:12;;;;;;;53.22;21.98;;;;;;;5.26;90.03;96785.75;5073561;28;20034;-72
2024/02/08 05:00:37;;;;;;;32.95;19.80;;;;;;;5.32;90.47;96776.75;5069603;28;20029;-72
2024/02/08 05:03:03;;;;;;;67.32;25.00;;;;;;;5.35;90.18;96783.44;5062578;28;20067;-72
2024/02/08 05:05:28;;;;;;;59.53;23.58;;;;;;;5.39;90.00;96782.72;5070193;28;20040;-72
2024/02/08 05:07:54;;;;;;;83.47;28.55;;;;;;;5.35;90.39;96786.94;5073104;28;20427;-72
2024/02/08 05:10:19;;;;;;;42.15;22.38;;;;;;;5.33;89.76;96783.72;5054994;28;20029;-72
2024/02/08 05:12:47;;;;;;;81.13;27.85;;;;;;;5.36;89.78;96782.41;5071080;28;20028;-73
2024/02/08 05:15:13;;;;;;;29.73;19.40;;;;;;;5.21;90.10;96758.97;5068592;28;20028;-74
2024/02/08 05:17:40;;;;;;;72.20;27.05;;;;;;;5.35;90.19;96776.25;5073026;28;20452;-74
2024/02/08 05:20:11;;;;;;;71.47;27.42;;;;;;;5.38;90.06;96781.13;5072070;28;20074;-72
2024/02/08 05:22:38;;;;;;;64.30;26.38;;;;;;;5.42;90.30;96787.56;5073147;28;20052;-73
2024/02/08 05:25:10;;;;;;;60.63;25.10;;;;;;;5.45;89.74;96786.28;5072793;28;20552;-72
2024/02/08 05:27:35;;;;;;;62.08;25.55;;;;;;;5.39;89.59;96782.72;5072883;28;20039;-71
2024/02/08 05:30:01;;;;;;;40.15;21.45;;;;;;;5.42;89.50;96778.75;5071579;28;20020;-71
2024/02/08 05:32:27;;;;;;;28.15;19.45;;;;;;;5.47;89.83;96774.28;5072854;28;20136;-72
2024/02/08 05:34:52;;;;;;;39.58;23.27;;;;;;;5.39;90.39;96758.69;5072649;28;20081;-71
2024/02/08 05:37:20;;;;;;;39.20;23.35;;;;;;;5.53;89.79;96778.63;5072535;28;20422;-72
2024/02/08 05:39:50;;;;;;;34.63;21.70;;;;;;;5.60;90.22;96776.59;5052244;28;20047;-72
2024/02/08 05:42:17;;;;;;;46.42;25.80;;;;;;;5.57;90.15;96769.09;5069320;28;20121;-71
2024/02/08 05:44:43;;;;;;;69.72;33.92;;;;;;;5.58;90.63;96770.69;5071060;28;20108;-70
2024/02/08 05:47:12;;;;;;;45.78;25.45;;;;;;;5.64;90.10;96762.75;5072528;28;20381;-69
2024/02/08 05:49:38;;;;;;;55.50;29.45;;;;;;;5.62;90.18;96759.53;5071306;28;20067;-72
2024/02/08 05:52:05;;;;;;;42.30;25.15;;;;;;;5.62;90.31;96754.19;5071629;28;20384;-71
2024/02/08 05:54:31;;;;;;;70.10;27.65;;;;;;;5.50;90.48;96739.09;5071106;28;20556;-71
2024/02/08 05:57:03;;;;;;;40.95;22.98;;;;;;;5.50;89.57;96741.78;5072670;28;20168;-71
2024/02/08 05:59:29;;;;;;;43.90;24.88;;;;;;;5.66;90.07;96760.63;5070595;28;20044;-71
2024/02/08 06:01:58;;;;;;;46.50;23.80;;;;;;;5.52;90.62;96739.66;5071205;28;20498;-71
2024/02/08 06:04:24;;;;;;;45.15;23.83;;;;;;;5.66;89.92;96760.63;5070749;28;20035;-71
2024/02/08 06:06:58;;;;;;;58.70;26.90;;;;;;;5.59;90.66;96755.47;5070869;28;20423;-70
2024/02/08 06:12:09;;;;;;;40.08;22.15;;;;;;;5.61;90.11;96769.41;5075373;28;20600;-71
2024/02/08 06:14:39;;;;;;;114.45;30.75;;;;;;;5.58;89.59;96765.34;5072270;28;20055;-73
2024/02/08 06:17:10;;;;;;;32.45;20.33;;;;;;;5.65;89.79;96767.84;5071036;28;20047;-73
2024/02/08 06:19:52;;;;;;;37.83;21.27;;;;;;;5.66;90.58;96761.44;5070841;28;20404;-70
2024/02/08 06:22:22;;;;;;;102.00;25.55;;;;;;;5.65;90.90;96753.69;5052984;28;20037;-72
2024/02/08 06:24:48;;;;;;;59.35;22.75;;;;;;;5.64;90.34;96757.41;5070276;28;20036;-71
2024/02/08 06:27:13;;;;;;;95.82;31.92;;;;;;;5.62;90.32;96771.03;5071768;28;20036;-73
2024/02/08 06:29:42;;;;;;;33.08;21.17;;;;;;;5.64;90.25;96778.78;5070516;28;20119;-73
2024/02/08 06:33:07;;;;;;;134.82;35.80;;;;;;;5.64;90.23;96778.78;5071944;28;20024;-71
2024/02/08 06:35:11;;;;;;;65.43;25.98;;;;;;;5.56;90.27;96761.31;5060114;28;20044;-72
2024/02/08 06:37:45;;;;;;;36.60;20.13;;;;;;;5.37;90.65;96742.13;5070648;28;20150;-70
2024/02/08 06:40:21;;;;;;;37.58;20.48;;;;;;;5.59;90.81;96771.50;5071745;28;20058;-72
2024/02/08 07:39:37;;;;;;;39.17;22.58;;;;;;;5.72;91.78;96794.38;5066950;28;20040;-72
2024/02/08 07:42:12;;;;;;;61.08;26.35;;;;;;;5.73;92.17;96787.97;5065722;28;20021;-71
2024/02/08 07:44:50;;;;;;;64.18;27.10;;;;;;;5.79;91.59;96800.34;5068204;28;20036;-71
2024/02/08 07:47:24;;;;;;;51.83;23.77;;;;;;;5.84;91.38;96795.03;5053476;28;20036;-71
2024/02/08 07:50:04;;;;;;;82.28;31.20;;;;;;;5.88;92.41;96806.91;5065655;28;20472;-71
2024/02/08 07:52:30;;;;;;;36.33;18.40;;;;;;;5.82;92.62;96807.84;5067998;28;20040;-71
2024/02/08 07:57:48;;;;;;;41.58;23.30;;;;;;;5.97;92.22;96808.06;5070412;28;20086;-71
2024/02/08 08:00:32;;;;;;;35.78;18.92;;;;;;;6.01;91.90;96803.84;5065693;28;20539;-72
2024/02/08 08:02:59;;;;;;;32.17;19.17;;;;;;;5.89;92.40;96787.13;5068164;28;20287;-71
2024/02/08 08:05:24;;;;;;;25.80;15.35;;;;;;;6.06;93.40;96803.91;5067907;28;20066;-71
2024/02/08 08:07:59;;;;;;;26.20;15.20;;;;;;;6.10;92.67;96800.47;5066440;28;20029;-71
2024/02/08 08:10:30;;;;;;;19.58;13.88;;;;;;;6.20;92.63;96800.59;5068743;28;20489;-72
2024/02/08 08:12:56;;;;;;;28.02;15.02;;;;;;;6.20;92.57;96794.44;5067299;28;20029;-72
2024/02/08 08:15:24;;;;;;;25.40;14.63;;;;;;;6.32;92.68;96802.31;5063379;28;20054;-72
2024/02/08 08:17:59;;;;;;;16.88;10.88;;;;;;;6.31;93.10;96793.50;5072223;28;20115;-72
2024/02/08 08:23:25;;;;;;;22.05;13.88;;;;;;;6.32;92.62;96779.06;5073608;28;20117;-71
2024/02/08 08:26:05;;;;;;;51.42;30.95;;;;;;;6.50;92.81;96789.41;5066913;28;20458;-71
2024/02/08 08:28:39;;;;;;;46.92;30.58;;;;;;;6.55;92.58;96792.13;5067832;28;20036;-71
2024/02/08 08:31:16;;;;;;;21.63;16.27;;;;;;;6.51;92.93;96774.97;5073170;28;20078;-71
2024/02/08 08:34:03;;;;;;;11.95;10.02;;;;;;;6.67;92.67;96784.75;5064598;28;20032;-72
2024/02/08 08:36:29;;;;;;;10.93;9.52;;;;;;;6.72;93.27;96792.81;5071453;28;20043;-71
2024/02/08 08:41:47;;;;;;;20.98;11.00;;;;;;;6.72;93.38;96784.78;5055320;28;20489;-70
2024/02/08 08:44:18;;;;;;;15.43;9.80;;;;;;;6.85;93.11;96792.41;5073121;28;20423;-71
2024/02/08 08:46:44;;;;;;;24.60;14.68;;;;;;;6.78;93.52;96781.09;5063600;28;20039;-71
2024/02/08 08:49:14;;;;;;;71.75;24.38;;;;;;;6.89;93.50;96798.03;5071671;28;20048;-71
2024/02/08 08:51:43;;;;;;;55.10;19.08;;;;;;;6.89;93.73;96790.81;5069313;28;20028;-70
2024/02/08 08:54:19;;;;;;;41.92;18.42;;;;;;;6.92;93.50;96793.00;5071176;28;20024;-70
2024/02/08 08:56:48;;;;;;;42.00;18.98;;;;;;;6.96;92.84;96791.41;5063546;28;20036;-71
2024/02/08 08:59:19;;;;;;;31.42;15.98;;;;;;;7.05;93.39;96793.63;5073036;28;20060;-71
2024/02/08 09:01:48;;;;;;;56.17;22.17;;;;;;;6.93;93.33;96772.41;5065746;28;20028;-72
2024/02/08 09:04:25;;;;;;;95.47;26.52;;;;;;;7.03;93.27;96785.84;5068651;28;20048;-72
2024/02/08 09:06:54;;;;;;;76.43;24.23;;;;;;;6.85;92.70;96762.97;5070482;28;20044;-71
2024/02/08 09:09:28;;;;;;;92.28;25.92;;;;;;;7.02;92.80;96797.63;5072826;28;20050;-71
2024/02/08 09:12:00;;;;;;;125.47;26.55;;;;;;;6.98;93.43;96794.63;5072723;28;20508;-72
2024/02/08 09:14:32;;;;;;;69.10;21.25;;;;;;;7.00;93.75;96799.75;5071343;28;20035;-71
2024/02/08 09:16:58;;;;;;;80.65;23.73;;;;;;;7.06;93.86;96797.91;5073275;28;20090;-71
2024/02/08 09:19:27;;;;;;;47.75;27.27;;;;;;;7.12;94.07;96803.03;5064184;28;20033;-71
2024/02/08 09:21:53;;;;;;;68.95;26.60;;;;;;;7.14;93.31;96794.78;5063592;28;20759;-70
2024/02/08 09:24:22;;;;;;;72.07;25.10;;;;;;;7.04;94.49;96795.50;5068016;28;20027;-71
2024/02/08 09:29:38;;;;;;;27.13;17.52;;;;;;;7.25;94.01;96793.78;5071185;28;20036;-71
2024/02/08 09:32:18;;;;;;;119.07;48.13;;;;;;;7.35;93.24;96796.53;5071926;28;20438;-71
2024/02/08 09:34:46;;;;;;;104.40;39.15;;;;;;;7.39;92.99;96789.59;5072083;28;20384;-71
2024/02/08 09:37:11;;;;;;;44.15;24.88;;;;;;;7.32;93.02;96764.91;5071416;28;20043;-71
2024/02/08 09:42:19;;;;;;;57.10;28.90;;;;;;;7.61;93.10;96784.88;5062924;28;20048;-71
2024/02/08 09:44:49;;;;;;;68.88;32.05;;;;;;;7.64;92.96;96787.03;5072063;28;20028;-71
2024/02/08 09:47:25;;;;;;;63.22;28.85;;;;;;;7.64;92.80;96795.06;5071002;28;20060;-70
2024/02/08 09:50:00;;;;;;;44.25;25.27;;;;;;;7.67;93.32;96791.88;5064083;28;20041;-70
2024/02/08 09:52:30;;;;;;;51.00;27.95;;;;;;;7.62;93.62;96792.66;5068382;28;20120;-71
2024/02/08 09:55:06;;;;;;;54.17;25.95;;;;;;;7.58;94.00;96790.78;5064102;28;20260;-71
2024/02/08 09:57:45;;;;;;;188.77;41.67;;;;;;;7.54;93.39;96795.00;5070338;28;20032;-71
2024/02/08 10:00:34;;;;;;;124.18;46.08;;;;;;;7.54;93.12;96789.66;5070785;28;20031;-71
2024/02/08 10:03:05;;;;;;;126.82;38.10;;;;;;;7.49;93.42;96787.75;5064838;28;20040;-70
2024/02/08 10:05:51;;;;;;;275.40;48.22;;;;;;;7.49;93.71;96776.25;5068574;28;20066;-71
2024/02/08 10:08:28;;;;;;;83.55;38.90;;;;;;;7.42;93.00;96778.34;5067012;28;20055;-71
2024/02/08 10:11:11;;;;;;;64.18;31.83;;;;;;;7.39;93.06;96765.47;5067763;28;20399;-71
2024/02/08 10:16:47;;;;;;;42.38;21.80;;;;;;;7.71;93.28;96773.41;4993811;28;20073;-71
2024/02/08 10:19:28;;;;;;;75.13;33.95;;;;;;;7.76;93.31;96782.28;5061259;28;20056;-71
2024/02/08 10:21:57;;;;;;;40.03;21.75;;;;;;;7.84;92.79;96765.69;5063703;28;20032;-71
2024/02/08 10:24:28;;;;;;;30.55;20.30;;;;;;;7.87;92.44;96743.72;5070826;28;20021;-71
2024/02/08 10:26:58;;;;;;;9.10;7.55;;;;;;;8.05;93.02;96759.34;5070263;28;20039;-72
2024/02/08 10:29:25;;;;;;;5.32;4.25;;;;;;;8.10;92.34;96755.88;5070364;28;20067;-72
2024/02/08 10:31:54;;;;;;;3.50;3.20;;;;;;;8.19;92.43;96748.94;5070412;28;20028;-71
2024/02/08 10:34:33;;;;;;;3.70;3.45;;;;;;;8.25;92.76;96748.69;5069924;28;20598;-72
2024/02/08 10:36:59;;;;;;;7.22;6.40;;;;;;;8.25;92.45;96740.63;5065606;28;20079;-73
2024/02/08 10:39:25;;;;;;;9.13;7.93;;;;;;;8.10;92.53;96716.47;5066318;28;20462;-72
2024/02/08 10:41:57;;;;;;;10.02;7.95;;;;;;;8.31;92.34;96742.28;5071371;28;20040;-71
2024/02/08 10:44:34;;;;;;;9.10;8.10;;;;;;;8.35;92.29;96740.66;5069585;28;20051;-71
2024/02/08 10:47:06;;;;;;;12.40;9.85;;;;;;;8.40;92.08;96733.72;5066456;28;20033;-71
2024/02/08 10:49:51;;;;;;;8.77;7.75;;;;;;;8.44;92.13;96724.06;5069267;28;20036;-71
2024/02/08 10:52:19;;;;;;;8.70;6.95;;;;;;;8.45;92.61;96714.97;5071051;28;20036;-71
2024/02/08 10:54:51;;;;;;;9.25;7.25;;;;;;;8.48;91.94;96711.72;5061596;28;20051;-71
2024/02/08 11:00:49;;;;;;;8.68;7.13;;;;;;;8.46;92.25;96716.56;5065233;28;20094;-71
2024/02/08 11:03:00;;;;;;;13.73;11.35;;;;;;;8.34;92.76;96693.47;5062112;28;20032;-72
2024/02/08 11:07:54;;;;;;;25.17;19.45;;;;;;;8.27;92.51;96682.22;5071041;28;20122;-71
2024/02/08 11:10:23;;;;;;;17.67;14.07;;;;;;;8.44;92.58;96689.19;5070368;28;20032;-72
2024/02/08 11:12:52;;;;;;;18.48;12.93;;;;;;;8.46;92.62;96679.00;5070000;28;20094;-71
2024/02/08 11:15:30;;;;;;;15.52;13.77;;;;;;;8.59;92.75;96686.53;5069796;28;20051;-71
2024/02/08 11:17:57;;;;;;;15.93;12.88;;;;;;;8.55;92.34;96666.66;5063333;28;20119;-71
2024/02/08 11:20:44;;;;;;;22.73;16.23;;;;;;;8.67;92.33;96680.59;5070951;28;20043;-72
2024/02/08 11:23:22;;;;;;;18.83;14.35;;;;;;;8.68;92.79;96676.88;5070592;28;20043;-72
2024/02/08 11:25:49;;;;;;;30.80;19.20;;;;;;;8.67;92.30;96664.50;5063238;28;20040;-71
2024/02/08 11:28:24;;;;;;;24.45;16.48;;;;;;;8.74;92.69;96667.72;5071110;28;20054;-72
2024/02/08 11:30:51;;;;;;;27.25;16.83;;;;;;;8.65;93.09;96661.28;5062667;28;20098;-72
2024/02/08 11:33:22;;;;;;;27.85;17.45;;;;;;;8.83;92.68;96652.66;5069887;28;20039;-72
2024/02/08 11:35:56;;;;;;;21.65;16.92;;;;;;;8.88;92.63;96656.16;5063781;28;20491;-72
2024/02/08 11:38:30;;;;;;;27.52;23.58;;;;;;;8.90;92.25;96651.31;5066695;28;20037;-72
2024/02/08 11:41:06;;;;;;;23.02;17.73;;;;;;;8.78;93.13;96640.06;5069488;28;20064;-72
2024/02/08 11:43:31;;;;;;;21.27;17.13;;;;;;;8.91;92.99;96639.50;5069339;28;20033;-72
2024/02/08 11:45:57;;;;;;;35.50;22.48;;;;;;;8.82;93.48;96632.28;5070326;28;20025;-71
2024/02/08 11:48:41;;;;;;;39.75;30.17;;;;;;;8.88;93.19;96623.94;5072759;28;20503;-71
2024/02/08 11:51:14;;;;;;;23.83;18.63;;;;;;;8.99;92.98;96625.53;5074420;28;20043;-72
2024/02/08 11:53:44;;;;;;;22.83;18.50;;;;;;;8.88;93.10;96598.97;5073953;28;20112;-71
2024/02/08 11:56:10;;;;;;;19.70;17.02;;;;;;;9.19;93.29;96623.88;5074308;28;20032;-72
2024/02/08 11:58:46;;;;;;;11.93;10.82;;;;;;;9.22;93.42;96613.38;5073175;28;20516;-72
2024/02/08 12:01:14;;;;;;;12.05;11.05;;;;;;;9.20;93.28;96610.16;5072910;28;20407;-72
2024/02/08 12:03:43;;;;;;;8.52;7.72;;;;;;;9.26;93.60;96602.91;5073767;28;20024;-71
2024/02/08 12:06:17;;;;;;;8.32;7.57;;;;;;;9.29;93.22;96595.06;5074430;28;20039;-71
2024/02/08 12:09:03;;;;;;;4.78;4.38;;;;;;;9.22;93.22;96605.31;5074187;28;20182;-71
2024/02/08 12:11:32;;;;;;;5.18;4.65;;;;;;;9.24;93.90;96599.69;5069278;28;20451;-72
2024/02/08 12:14:11;;;;;;;6.93;6.28;;;;;;;9.32;93.41;96593.72;5066030;28;20028;-71
2024/02/08 12:16:46;;;;;;;7.55;6.85;;;;;;;9.24;93.37;96565.53;5073683;28;20112;-71
2024/02/08 12:19:15;;;;;;;7.18;6.32;;;;;;;9.32;93.67;96570.34;5074042;28;20413;-72
2024/02/08 12:21:42;;;;;;;7.88;7.18;;;;;;;9.45;93.67;96579.72;5073031;28;20029;-71
2024/02/08 12:24:08;;;;;;;9.30;7.75;;;;;;;9.50;93.54;96567.03;5069738;28;20089;-71
2024/02/08 12:26:38;;;;;;;14.32;9.30;;;;;;;9.48;93.45;96569.19;5072227;28;20017;-71
2024/02/08 12:29:05;;;;;;;8.45;7.55;;;;;;;9.45;93.62;96564.38;5072569;28;20404;-72
2024/02/08 12:31:32;;;;;;;7.00;6.35;;;;;;;9.47;93.76;96551.47;5072482;28;20025;-70
2024/02/08 12:33:59;;;;;;;8.90;8.10;;;;;;;9.54;93.88;96551.16;5053111;28;20036;-70
2024/02/08 12:36:28;;;;;;;5.10;4.70;;;;;;;9.37;94.04;96519.28;5073071;28;20063;-71
2024/02/08 12:38:55;;;;;;;5.38;4.97;;;;;;;9.55;93.56;96548.19;5073887;28;20044;-71
2024/02/08 12:41:24;;;;;;;4.75;4.35;;;;;;;9.52;93.94;96538.00;5071893;28;20025;-71
2024/02/08 12:43:51;;;;;;;6.28;5.68;;;;;;;9.54;93.76;96545.78;5072504;28;20054;-70
2024/02/08 12:46:17;;;;;;;4.60;4.30;;;;;;;9.47;94.16;96530.00;5070474;28;20400;-71
2024/02/08 12:48:42;;;;;;;4.97;4.57;;;;;;;9.47;94.31;96521.94;5073362;28;20051;-71
2024/02/08 12:51:13;;;;;;;7.68;6.97;;;;;;;9.47;94.28;96529.19;5072801;28;20028;-70
2024/02/08 12:53:42;;;;;;;6.75;6.15;;;;;;;9.48;94.48;96525.41;5069397;28;20045;-70
2024/02/08 12:56:09;;;;;;;6.57;5.97;;;;;;;9.41;94.40;96517.66;5073338;28;20043;-71
2024/02/08 12:58:35;;;;;;;5.68;5.22;;;;;;;9.28;94.69;96498.66;5072454;28;20040;-70
2024/02/08 13:01:04;;;;;;;7.10;6.40;;;;;;;9.44;94.83;96519.78;5072900;28;20031;-70
2024/02/08 13:03:36;;;;;;;8.77;7.97;;;;;;;9.49;94.71;96506.31;5071556;28;20039;-70
2024/02/08 13:06:03;;;;;;;8.63;7.78;;;;;;;9.42;95.05;96500.47;5071911;28;20435;-70
2024/02/08 13:08:33;;;;;;;8.02;6.93;;;;;;;9.35;95.40;96485.72;5071579;28;20052;-70
2024/02/08 13:11:00;;;;;;;8.88;8.07;;;;;;;9.41;94.95;96482.72;5071989;28;20040;-70
2024/02/08 13:13:26;;;;;;;13.73;12.20;;;;;;;9.48;95.40;96493.97;5071513;28;20021;-71
2024/02/08 13:15:59;;;;;;;14.70;12.38;;;;;;;9.44;95.82;96490.22;5067628;28;20039;-71
2024/02/08 13:18:31;;;;;;;14.40;10.30;;;;;;;9.43;95.61;96480.56;5070680;28;20040;-71
2024/02/08 13:21:00;;;;;;;18.00;15.70;;;;;;;9.54;95.83;96489.38;5065104;28;20048;-70
2024/02/08 13:23:29;;;;;;;16.55;13.50;;;;;;;9.52;96.09;96484.25;5072568;28;20039;-70
2024/02/08 13:25:54;;;;;;;17.40;12.88;;;;;;;9.59;96.26;96478.59;5069135;28;20032;-70
2024/02/08 13:28:24;;;;;;;15.23;12.50;;;;;;;9.52;96.30;96461.97;5067128;28;20024;-71
2024/02/08 13:30:53;;;;;;;15.85;13.50;;;;;;;9.63;96.44;96469.69;5071498;28;20496;-71
2024/02/08 13:33:19;;;;;;;18.38;14.75;;;;;;;9.60;96.93;96467.53;5054588;28;20370;-71
2024/02/08 13:35:48;;;;;;;21.42;14.88;;;;;;;9.64;97.05;96460.53;5067688;28;20087;-70
2024/02/08 13:38:15;;;;;;;16.85;14.82;;;;;;;9.59;96.90;96439.06;5070335;28;20024;-70
2024/02/08 13:40:44;;;;;;;23.25;14.80;;;;;;;9.70;96.96;96459.41;5071265;28;20452;-71
2024/02/08 13:43:13;;;;;;;17.13;14.90;;;;;;;9.66;97.01;96442.22;5063170;28;20480;-71
2024/02/08 13:45:39;;;;;;;19.70;15.60;;;;;;;9.71;97.13;96450.25;5072013;28;20057;-71
2024/02/08 13:48:10;;;;;;;18.88;15.65;;;;;;;9.74;97.15;96449.69;5070860;28;20031;-71
2024/02/08 13:50:36;;;;;;;25.25;19.08;;;;;;;9.77;97.29;96442.16;5070990;28;20032;-71